Time;durP1;ratioP1;P1;durP2;ratioP2;P2;SDS_P1;SDS_P2;PMS_P1;PMS_P2;Temp;Humidity;BMP_temperature;BMP_pressure;BME280_temperature;BME280_humidity;BME280_pressure;Samples;Min_cycle;Max_cycle;Signal;HPM_P1;HPM_P2
2023/12/21 00:01:13;;;;;;;2.27;2.07;;;;;;;;;;5048094;28;20234;-83
2023/12/21 00:03:40;;;;;;;2.20;2.10;;;;;;;;;;5033840;28;20207;-83
2023/12/21 00:06:07;;;;;;;2.23;2.03;;;;;;;;;;5042253;28;20835;-83
2023/12/21 00:08:36;;;;;;;2.00;1.90;;;;;;;;;;5053965;28;20217;-83
2023/12/21 00:11:03;;;;;;;1.47;1.47;;;;;;;;;;5053295;28;20244;-86
2023/12/21 00:13:30;;;;;;;1.47;1.47;;;;;;;;;;5053218;28;20562;-83
2023/12/21 00:15:57;;;;;;;2.13;1.97;;;;;;;;;;5053180;28;20229;-84
2023/12/21 00:18:24;;;;;;;2.20;1.80;;;;;;;;;;5053802;28;20230;-83
2023/12/21 00:20:51;;;;;;;1.77;1.70;;;;;;;;;;5049276;28;20230;-84
2023/12/21 00:23:18;;;;;;;3.27;2.00;;;;;;;;;;5047142;28;20195;-83
2023/12/21 00:25:46;;;;;;;1.70;1.67;;;;;;;;;;5044848;28;20238;-83
2023/12/21 00:28:13;;;;;;;1.40;1.40;;;;;;;;;;5050958;28;20237;-83
2023/12/21 00:30:40;;;;;;;2.10;1.90;;;;;;;;;;5038486;28;20233;-82
2023/12/21 00:33:07;;;;;;;1.30;1.30;;;;;;;;;;5053303;28;20260;-83
2023/12/21 00:35:34;;;;;;;1.43;1.43;;;;;;;;;;5052768;28;20238;-83
2023/12/21 00:38:01;;;;;;;1.53;1.53;;;;;;;;;;5041260;28;20569;-82
2023/12/21 00:40:28;;;;;;;2.10;2.00;;;;;;;;;;5047479;28;20756;-82
2023/12/21 00:42:57;;;;;;;1.77;1.77;;;;;;;;;;5053091;28;20231;-82
2023/12/21 00:45:24;;;;;;;1.50;1.50;;;;;;;;;;5052976;28;20633;-81
2023/12/21 00:47:51;;;;;;;1.67;1.63;;;;;;;;;;5056179;28;20226;-82
2023/12/21 00:50:18;;;;;;;2.00;1.90;;;;;;;;;;5055354;28;20547;-83
2023/12/21 00:52:45;;;;;;;2.17;1.97;;;;;;;;;;5053609;28;20209;-84
2023/12/21 00:55:12;;;;;;;3.20;2.00;;;;;;;;;;5052120;28;20625;-82
2023/12/21 00:57:39;;;;;;;1.63;1.63;;;;;;;;;;5045432;28;20222;-82
2023/12/21 01:00:07;;;;;;;1.57;1.57;;;;;;;;;;5033007;28;20226;-82
2023/12/21 01:02:36;;;;;;;2.00;1.80;;;;;;;;;;5052592;28;20206;-83
2023/12/21 01:05:03;;;;;;;1.80;1.70;;;;;;;;;;5052449;28;20304;-82
2023/12/21 01:07:30;;;;;;;2.13;1.90;;;;;;;;;;5051701;28;20221;-81
2023/12/21 01:09:57;;;;;;;1.40;1.40;;;;;;;;;;5032812;28;20202;-81
2023/12/21 01:12:24;;;;;;;1.93;1.83;;;;;;;;;;5051438;28;20642;-83
2023/12/21 01:14:51;;;;;;;1.43;1.43;;;;;;;;;;5052783;28;20305;-82
2023/12/21 01:17:20;;;;;;;1.80;1.70;;;;;;;;;;5051930;28;20238;-81
2023/12/21 01:19:47;;;;;;;1.80;1.73;;;;;;;;;;5035726;28;20218;-81
2023/12/21 01:22:14;;;;;;;2.20;1.93;;;;;;;;;;5052053;28;20616;-82
2023/12/21 01:24:41;;;;;;;1.70;1.70;;;;;;;;;;5049930;28;20202;-81
2023/12/21 01:27:08;;;;;;;1.67;1.63;;;;;;;;;;5049264;28;20735;-82
2023/12/21 01:29:35;;;;;;;1.80;1.70;;;;;;;;;;5052236;28;20222;-83
2023/12/21 01:32:02;;;;;;;1.50;1.50;;;;;;;;;;5051855;28;20280;-83
2023/12/21 01:34:30;;;;;;;1.50;1.50;;;;;;;;;;5036012;28;20202;-82
2023/12/21 01:36:57;;;;;;;1.60;1.60;;;;;;;;;;5051995;28;20238;-82
2023/12/21 01:39:24;;;;;;;1.80;1.70;;;;;;;;;;5052159;28;20229;-83
2023/12/21 01:41:51;;;;;;;1.87;1.77;;;;;;;;;;5036928;28;20230;-82
2023/12/21 01:44:18;;;;;;;1.60;1.60;;;;;;;;;;5033300;28;20202;-82
2023/12/21 01:46:45;;;;;;;1.77;1.67;;;;;;;;;;5044240;28;20285;-82
2023/12/21 01:49:13;;;;;;;1.60;1.60;;;;;;;;;;5051429;28;20263;-83
2023/12/21 01:51:41;;;;;;;2.40;1.80;;;;;;;;;;5046201;28;20716;-82
2023/12/21 01:54:09;;;;;;;1.83;1.73;;;;;;;;;;5052130;28;20696;-83
2023/12/21 01:56:36;;;;;;;1.33;1.33;;;;;;;;;;5051275;28;20230;-82
2023/12/21 01:59:03;;;;;;;1.77;1.67;;;;;;;;;;5052074;28;20230;-82
2023/12/21 02:01:31;;;;;;;1.30;1.30;;;;;;;;;;5045852;28;20288;-82
2023/12/21 02:03:58;;;;;;;1.40;1.40;;;;;;;;;;5035360;28;20202;-83
2023/12/21 02:06:26;;;;;;;1.50;1.50;;;;;;;;;;5050637;28;20239;-82
2023/12/21 02:08:54;;;;;;;1.50;1.50;;;;;;;;;;5052066;28;20257;-82
2023/12/21 02:11:21;;;;;;;1.60;1.60;;;;;;;;;;5040757;28;20225;-83
2023/12/21 02:13:48;;;;;;;1.43;1.43;;;;;;;;;;5051641;28;20217;-84
2023/12/21 02:16:18;;;;;;;1.70;1.60;;;;;;;;;;5048003;28;20231;-82
2023/12/21 02:18:45;;;;;;;1.70;1.70;;;;;;;;;;5047646;28;20227;-83
2023/12/21 02:21:12;;;;;;;1.57;1.57;;;;;;;;;;5031469;28;20689;-82
2023/12/21 02:23:40;;;;;;;1.50;1.50;;;;;;;;;;5032027;28;20226;-81
2023/12/21 02:26:08;;;;;;;1.40;1.40;;;;;;;;;;5046411;28;20234;-81
2023/12/21 02:28:35;;;;;;;1.50;1.50;;;;;;;;;;5051656;28;20230;-81
2023/12/21 02:31:02;;;;;;;1.43;1.33;;;;;;;;;;5044413;28;20233;-82
2023/12/21 02:33:30;;;;;;;1.40;1.40;;;;;;;;;;5051453;28;20225;-83
2023/12/21 02:35:57;;;;;;;1.40;1.40;;;;;;;;;;5051188;28;20241;-82
2023/12/21 02:38:24;;;;;;;1.50;1.50;;;;;;;;;;5051262;28;20230;-82
2023/12/21 02:40:51;;;;;;;1.40;1.40;;;;;;;;;;5050425;28;20312;-82
2023/12/21 02:43:20;;;;;;;1.50;1.50;;;;;;;;;;5051614;28;20248;-83
2023/12/21 02:45:47;;;;;;;1.47;1.47;;;;;;;;;;5050452;28;20248;-82
2023/12/21 02:48:14;;;;;;;1.47;1.47;;;;;;;;;;5046504;28;20219;-82
2023/12/21 02:50:41;;;;;;;1.43;1.43;;;;;;;;;;5036476;28;20241;-82
2023/12/21 02:53:08;;;;;;;1.40;1.40;;;;;;;;;;5051430;28;20194;-84
2023/12/21 02:55:35;;;;;;;1.50;1.50;;;;;;;;;;5051113;28;20238;-82
2023/12/21 02:58:03;;;;;;;1.70;1.60;;;;;;;;;;5051284;28;20316;-83
2023/12/21 03:00:31;;;;;;;1.57;1.50;;;;;;;;;;5050774;28;20265;-83
2023/12/21 03:02:58;;;;;;;1.67;1.67;;;;;;;;;;5051307;28;20229;-82
2023/12/21 03:05:25;;;;;;;1.63;1.63;;;;;;;;;;5050849;28;20236;-82
2023/12/21 03:07:53;;;;;;;1.30;1.30;;;;;;;;;;5051245;28;20582;-83
2023/12/21 03:10:20;;;;;;;1.50;1.50;;;;;;;;;;5050794;28;20233;-83
2023/12/21 03:12:47;;;;;;;1.33;1.33;;;;;;;;;;5050372;28;20218;-82
2023/12/21 03:15:14;;;;;;;1.30;1.30;;;;;;;;;;5045339;28;20260;-82
2023/12/21 03:17:43;;;;;;;1.50;1.50;;;;;;;;;;5041759;28;20230;-83
2023/12/21 03:20:11;;;;;;;1.50;1.50;;;;;;;;;;5050957;28;20677;-83
2023/12/21 03:22:38;;;;;;;1.60;1.60;;;;;;;;;;5038910;28;20206;-83
2023/12/21 03:25:05;;;;;;;1.40;1.40;;;;;;;;;;5035136;28;20215;-83
2023/12/21 03:27:32;;;;;;;1.37;1.30;;;;;;;;;;5054883;28;20540;-83
2023/12/21 03:29:59;;;;;;;1.90;1.30;;;;;;;;;;5054758;28;20199;-83
2023/12/21 03:32:27;;;;;;;1.63;1.53;;;;;;;;;;5054089;28;20704;-83
2023/12/21 03:34:56;;;;;;;1.57;1.57;;;;;;;;;;5049531;28;20290;-83
2023/12/21 03:37:27;;;;;;;1.47;1.30;;;;;;;;;;5053357;28;20248;-82
2023/12/21 03:39:54;;;;;;;1.30;1.30;;;;;;;;;;5054414;28;20685;-83
2023/12/21 03:42:21;;;;;;;1.47;1.37;;;;;;;;;;5054066;28;20316;-82
2023/12/21 03:44:48;;;;;;;1.30;1.30;;;;;;;;;;5054894;28;20210;-84
2023/12/21 03:47:15;;;;;;;1.40;1.40;;;;;;;;;;5054301;28;20265;-82
2023/12/21 03:49:42;;;;;;;1.40;1.40;;;;;;;;;;5056155;28;20673;-82
2023/12/21 03:52:11;;;;;;;1.30;1.30;;;;;;;;;;5055159;28;20241;-82
2023/12/21 03:54:38;;;;;;;1.40;1.40;;;;;;;;;;5058498;28;20202;-82
2023/12/21 03:57:05;;;;;;;1.47;1.47;;;;;;;;;;5058094;28;20234;-82
2023/12/21 03:59:34;;;;;;;1.40;1.40;;;;;;;;;;5056719;28;20272;-81
2023/12/21 04:02:01;;;;;;;1.30;1.30;;;;;;;;;;5063724;28;20241;-81
2023/12/21 04:04:31;;;;;;;1.37;1.37;;;;;;;;;;5068238;28;20209;-82
2023/12/21 04:06:58;;;;;;;1.23;1.23;;;;;;;;;;5054368;28;20240;-85
2023/12/21 04:09:28;;;;;;;3.20;1.43;;;;;;;;;;5054304;28;20223;-82
2023/12/21 04:11:54;;;;;;;1.43;1.43;;;;;;;;;;5053445;28;20244;-82
2023/12/21 04:14:21;;;;;;;1.23;1.23;;;;;;;;;;5054016;28;20213;-83
2023/12/21 04:16:49;;;;;;;1.30;1.30;;;;;;;;;;5039786;28;20234;-82
2023/12/21 04:19:16;;;;;;;1.30;1.30;;;;;;;;;;5034068;28;20296;-83
2023/12/21 04:21:43;;;;;;;1.50;1.50;;;;;;;;;;5046998;28;20234;-82
2023/12/21 04:24:10;;;;;;;1.40;1.40;;;;;;;;;;5053410;28;20669;-82
2023/12/21 04:26:39;;;;;;;1.50;1.50;;;;;;;;;;5053315;28;20308;-83
2023/12/21 04:29:06;;;;;;;1.50;1.50;;;;;;;;;;5053596;28;20236;-83
2023/12/21 04:31:33;;;;;;;1.37;1.37;;;;;;;;;;5052040;28;20257;-84
2023/12/21 04:34:00;;;;;;;1.40;1.30;;;;;;;;;;5037767;28;20210;-84
2023/12/21 04:36:28;;;;;;;1.57;1.47;;;;;;;;;;5044672;28;20234;-84
2023/12/21 04:38:56;;;;;;;1.70;1.60;;;;;;;;;;5053672;28;20300;-86
2023/12/21 04:41:23;;;;;;;1.33;1.33;;;;;;;;;;5052925;28;20716;-83
2023/12/21 04:43:52;;;;;;;1.30;1.30;;;;;;;;;;5053043;28;20206;-84
2023/12/21 04:46:19;;;;;;;1.47;1.43;;;;;;;;;;5052671;28;20609;-83
2023/12/21 04:48:46;;;;;;;1.20;1.20;;;;;;;;;;5053562;28;20587;-83
2023/12/21 04:51:15;;;;;;;1.40;1.40;;;;;;;;;;5052526;28;20288;-83
2023/12/21 04:53:42;;;;;;;1.20;1.20;;;;;;;;;;5052899;28;20288;-83
2023/12/21 04:56:09;;;;;;;1.30;1.30;;;;;;;;;;5052737;28;20677;-84
2023/12/21 04:58:37;;;;;;;1.20;1.20;;;;;;;;;;5038246;28;20302;-82
2023/12/21 05:01:07;;;;;;;1.73;1.63;;;;;;;;;;5052602;28;20241;-82
2023/12/21 05:03:34;;;;;;;1.70;1.70;;;;;;;;;;5053032;28;20210;-83
2023/12/21 05:06:01;;;;;;;1.30;1.30;;;;;;;;;;5052184;28;20234;-81
2023/12/21 05:08:28;;;;;;;1.37;1.27;;;;;;;;;;5041844;28;20253;-82
2023/12/21 05:10:56;;;;;;;2.20;1.40;;;;;;;;;;5039721;28;20261;-82
2023/12/21 05:13:23;;;;;;;1.17;1.17;;;;;;;;;;5052420;28;20206;-82
2023/12/21 05:15:50;;;;;;;1.20;1.20;;;;;;;;;;5052578;28;20234;-82
2023/12/21 05:18:18;;;;;;;1.50;1.40;;;;;;;;;;5037628;28;20231;-82
2023/12/21 05:20:45;;;;;;;1.20;1.20;;;;;;;;;;5038205;28;20751;-81
2023/12/21 05:23:12;;;;;;;1.37;1.30;;;;;;;;;;5051796;28;20533;-82
2023/12/21 05:25:39;;;;;;;1.10;1.10;;;;;;;;;;5051612;28;20245;-83
2023/12/21 05:28:07;;;;;;;1.30;1.30;;;;;;;;;;5052723;28;20276;-81
2023/12/21 05:30:34;;;;;;;1.20;1.20;;;;;;;;;;5051703;28;20766;-82
2023/12/21 05:33:01;;;;;;;1.40;1.40;;;;;;;;;;5052310;28;20198;-82
2023/12/21 05:35:29;;;;;;;1.20;1.20;;;;;;;;;;5036530;28;20585;-82
2023/12/21 05:37:56;;;;;;;1.27;1.27;;;;;;;;;;5052360;28;20229;-82
2023/12/21 05:40:23;;;;;;;1.40;1.40;;;;;;;;;;5051989;28;20233;-81
2023/12/21 05:42:50;;;;;;;1.30;1.30;;;;;;;;;;5035540;28;20198;-81
2023/12/21 05:45:17;;;;;;;1.50;1.50;;;;;;;;;;5051939;28;20213;-82
2023/12/21 05:47:44;;;;;;;1.40;1.40;;;;;;;;;;5033249;28;20218;-82
2023/12/21 05:50:12;;;;;;;1.30;1.30;;;;;;;;;;5036879;28;20197;-82
2023/12/21 05:52:40;;;;;;;1.23;1.23;;;;;;;;;;5051673;28;20213;-83
2023/12/21 05:55:10;;;;;;;1.37;1.37;;;;;;;;;;5034782;28;20211;-82
2023/12/21 05:57:37;;;;;;;1.57;1.47;;;;;;;;;;5047273;28;20735;-82
2023/12/21 06:00:04;;;;;;;1.50;1.50;;;;;;;;;;5051475;28;20276;-81
2023/12/21 06:02:31;;;;;;;1.30;1.30;;;;;;;;;;5051725;28;20209;-81
2023/12/21 06:04:58;;;;;;;1.50;1.50;;;;;;;;;;5044473;28;20846;-84
2023/12/21 06:07:25;;;;;;;1.33;1.33;;;;;;;;;;5049319;28;20605;-79
2023/12/21 06:09:55;;;;;;;1.97;1.87;;;;;;;;;;5051905;28;20202;-79
2023/12/21 06:12:22;;;;;;;1.57;1.57;;;;;;;;;;5050818;28;20582;-77
2023/12/21 06:14:49;;;;;;;1.30;1.30;;;;;;;;;;5032591;28;20207;-77
2023/12/21 06:17:17;;;;;;;1.30;1.30;;;;;;;;;;5048759;28;20230;-77
2023/12/21 06:19:44;;;;;;;1.33;1.33;;;;;;;;;;5051341;28;20198;-78
2023/12/21 06:22:11;;;;;;;1.40;1.40;;;;;;;;;;5050253;28;20229;-78
2023/12/21 06:24:38;;;;;;;1.30;1.30;;;;;;;;;;5051400;28;20210;-78
2023/12/21 06:27:07;;;;;;;1.30;1.30;;;;;;;;;;5050944;28;20237;-79
2023/12/21 06:29:34;;;;;;;1.47;1.43;;;;;;;;;;5051486;28;20234;-78
2023/12/21 06:32:01;;;;;;;1.50;1.50;;;;;;;;;;5051031;28;20245;-78
2023/12/21 06:34:28;;;;;;;1.40;1.40;;;;;;;;;;5035544;28;20210;-79
2023/12/21 06:36:55;;;;;;;1.40;1.40;;;;;;;;;;5031152;28;20245;-79
2023/12/21 06:39:22;;;;;;;1.20;1.20;;;;;;;;;;5031436;28;20237;-77
2023/12/21 06:41:49;;;;;;;1.50;1.40;;;;;;;;;;5030765;28;20242;-78
2023/12/21 06:44:18;;;;;;;1.40;1.40;;;;;;;;;;5031587;28;20213;-79
2023/12/21 06:46:45;;;;;;;1.23;1.23;;;;;;;;;;5031105;28;20619;-79
2023/12/21 06:49:12;;;;;;;1.30;1.30;;;;;;;;;;5031189;28;20284;-79
2023/12/21 06:51:39;;;;;;;1.40;1.30;;;;;;;;;;5030908;28;20235;-80
2023/12/21 06:54:06;;;;;;;1.90;1.80;;;;;;;;;;5032564;28;20264;-79
2023/12/21 06:56:33;;;;;;;3.17;2.87;;;;;;;;;;5034755;28;20633;-78
2023/12/21 06:59:00;;;;;;;1.30;1.30;;;;;;;;;;5034845;28;20222;-79
2023/12/21 07:01:29;;;;;;;1.30;1.30;;;;;;;;;;5034185;28;20445;-78
2023/12/21 07:03:56;;;;;;;1.20;1.20;;;;;;;;;;5035026;28;20693;-78
2023/12/21 07:06:25;;;;;;;1.47;1.40;;;;;;;;;;5034813;28;20979;-79
2023/12/21 07:08:52;;;;;;;1.20;1.20;;;;;;;;;;5035697;28;20265;-79
2023/12/21 07:11:19;;;;;;;1.10;1.10;;;;;;;;;;5034607;28;20234;-78
2023/12/21 07:13:46;;;;;;;1.30;1.30;;;;;;;;;;5034787;28;20618;-79
2023/12/21 07:16:13;;;;;;;1.17;1.13;;;;;;;;;;5035560;28;20234;-78
2023/12/21 07:18:42;;;;;;;1.10;1.10;;;;;;;;;;5054082;28;20237;-78
2023/12/21 07:21:09;;;;;;;1.53;1.20;;;;;;;;;;5051128;28;20242;-78
2023/12/21 07:23:37;;;;;;;1.10;1.10;;;;;;;;;;5054088;28;20206;-79
2023/12/21 07:26:04;;;;;;;1.20;1.20;;;;;;;;;;5047794;28;20234;-78
2023/12/21 07:28:31;;;;;;;1.43;1.30;;;;;;;;;;5054210;28;20228;-78
2023/12/21 07:30:59;;;;;;;1.13;1.13;;;;;;;;;;5048551;28;20230;-78
2023/12/21 07:33:26;;;;;;;1.10;1.10;;;;;;;;;;5053269;28;20231;-81
2023/12/21 07:35:54;;;;;;;1.20;1.20;;;;;;;;;;5049786;28;20226;-79
2023/12/21 07:38:21;;;;;;;1.20;1.20;;;;;;;;;;5036443;28;20223;-79
2023/12/21 07:40:48;;;;;;;1.30;1.30;;;;;;;;;;5044079;28;20292;-78
2023/12/21 07:43:15;;;;;;;1.17;1.17;;;;;;;;;;5034829;28;20199;-78
2023/12/21 07:45:42;;;;;;;1.30;1.30;;;;;;;;;;5042584;28;20238;-78
2023/12/21 07:48:09;;;;;;;1.20;1.20;;;;;;;;;;5051352;28;20226;-78
2023/12/21 07:50:36;;;;;;;1.30;1.30;;;;;;;;;;5050982;28;20248;-78
2023/12/21 07:53:05;;;;;;;1.37;1.37;;;;;;;;;;5034183;28;20208;-80
2023/12/21 07:55:32;;;;;;;1.30;1.30;;;;;;;;;;5039156;28;20238;-78
2023/12/21 07:57:59;;;;;;;1.20;1.20;;;;;;;;;;5053556;28;20283;-80
2023/12/21 08:00:27;;;;;;;1.30;1.30;;;;;;;;;;5049884;28;20243;-79
2023/12/21 08:02:54;;;;;;;1.40;1.40;;;;;;;;;;5053605;28;20289;-78
2023/12/21 08:05:22;;;;;;;1.27;1.27;;;;;;;;;;5052812;28;20209;-78
2023/12/21 08:07:49;;;;;;;1.30;1.30;;;;;;;;;;5053579;28;20305;-78
2023/12/21 08:10:18;;;;;;;1.27;1.27;;;;;;;;;;5050061;28;20194;-78
2023/12/21 08:12:46;;;;;;;1.30;1.30;;;;;;;;;;5053310;28;20241;-78
2023/12/21 08:15:14;;;;;;;1.43;1.30;;;;;;;;;;5052866;28;20198;-79
2023/12/21 08:17:42;;;;;;;1.60;1.50;;;;;;;;;;5053690;28;20291;-78
2023/12/21 08:20:12;;;;;;;1.30;1.30;;;;;;;;;;5053294;28;20210;-80
2023/12/21 08:22:39;;;;;;;1.33;1.33;;;;;;;;;;5053366;28;20248;-78
2023/12/21 08:25:07;;;;;;;1.20;1.20;;;;;;;;;;5052493;28;20198;-78
2023/12/21 08:27:35;;;;;;;1.60;1.50;;;;;;;;;;5053335;28;20210;-77
2023/12/21 08:30:03;;;;;;;1.30;1.30;;;;;;;;;;5052014;28;20293;-79
2023/12/21 08:32:30;;;;;;;1.10;1.10;;;;;;;;;;5052937;28;20283;-77
2023/12/21 08:34:57;;;;;;;1.33;1.33;;;;;;;;;;5053242;28;20206;-77
2023/12/21 08:37:24;;;;;;;1.40;1.40;;;;;;;;;;5051772;28;20230;-79
2023/12/21 08:39:51;;;;;;;1.40;1.40;;;;;;;;;;5052840;28;20556;-78
2023/12/21 08:42:18;;;;;;;1.30;1.30;;;;;;;;;;5051903;28;20233;-77
2023/12/21 08:44:47;;;;;;;1.50;1.40;;;;;;;;;;5052319;28;20229;-78
2023/12/21 08:47:15;;;;;;;1.40;1.40;;;;;;;;;;5052419;28;20233;-78
2023/12/21 08:49:42;;;;;;;1.20;1.20;;;;;;;;;;5052491;28;20206;-78
2023/12/21 08:52:10;;;;;;;1.37;1.37;;;;;;;;;;5051728;28;20228;-78
2023/12/21 08:54:37;;;;;;;1.20;1.20;;;;;;;;;;5052979;28;20293;-78
2023/12/21 08:57:04;;;;;;;1.20;1.20;;;;;;;;;;5051980;28;20238;-78
2023/12/21 08:59:31;;;;;;;1.47;1.47;;;;;;;;;;5042956;28;20223;-79
2023/12/21 09:02:00;;;;;;;1.30;1.30;;;;;;;;;;5048019;28;20372;-79
2023/12/21 09:04:28;;;;;;;1.50;1.50;;;;;;;;;;5052629;28;20205;-79
2023/12/21 09:06:55;;;;;;;1.90;1.80;;;;;;;;;;5051967;28;20229;-79
2023/12/21 09:09:22;;;;;;;1.50;1.50;;;;;;;;;;5052148;28;20237;-78
2023/12/21 09:11:49;;;;;;;1.27;1.27;;;;;;;;;;5052063;28;20422;-78
2023/12/21 09:14:16;;;;;;;1.13;1.13;;;;;;;;;;5052144;28;20213;-78
2023/12/21 09:16:43;;;;;;;1.20;1.20;;;;;;;;;;5051276;28;20312;-78
2023/12/21 09:19:11;;;;;;;1.70;1.40;;;;;;;;;;5052390;28;20230;-77
2023/12/21 09:21:39;;;;;;;1.50;1.40;;;;;;;;;;5050021;28;20234;-78
2023/12/21 09:24:07;;;;;;;1.47;1.37;;;;;;;;;;5041872;28;20206;-78
2023/12/21 09:26:34;;;;;;;1.40;1.40;;;;;;;;;;5051754;28;20275;-78
2023/12/21 09:29:03;;;;;;;1.37;1.37;;;;;;;;;;5051750;28;20720;-78
2023/12/21 09:31:31;;;;;;;1.20;1.20;;;;;;;;;;5051596;28;20242;-79
2023/12/21 09:33:59;;;;;;;1.20;1.20;;;;;;;;;;5051855;28;20293;-78
2023/12/21 09:36:27;;;;;;;1.10;1.10;;;;;;;;;;5051349;28;20257;-78
2023/12/21 09:38:54;;;;;;;1.30;1.30;;;;;;;;;;5047639;28;20276;-77
2023/12/21 09:41:21;;;;;;;1.20;1.20;;;;;;;;;;5042375;28;20249;-77
2023/12/21 09:43:48;;;;;;;1.30;1.30;;;;;;;;;;5051482;28;20209;-78
2023/12/21 09:46:16;;;;;;;1.20;1.20;;;;;;;;;;5051473;28;20375;-78
2023/12/21 09:48:43;;;;;;;1.20;1.20;;;;;;;;;;5046606;28;20296;-77
2023/12/21 09:51:11;;;;;;;1.40;1.40;;;;;;;;;;5040517;28;20230;-78
2023/12/21 09:53:41;;;;;;;1.70;1.30;;;;;;;;;;5051606;28;20577;-80
2023/12/21 09:56:09;;;;;;;1.20;1.20;;;;;;;;;;5050554;28;20253;-78
2023/12/21 09:58:36;;;;;;;1.20;1.20;;;;;;;;;;5051525;28;20253;-79
2023/12/21 10:01:03;;;;;;;1.30;1.20;;;;;;;;;;5050950;28;20245;-79
2023/12/21 10:03:32;;;;;;;1.20;1.20;;;;;;;;;;5051704;28;20209;-77
2023/12/21 10:05:59;;;;;;;1.20;1.20;;;;;;;;;;5048147;28;20301;-77
2023/12/21 10:08:26;;;;;;;1.10;1.10;;;;;;;;;;5058438;28;20271;-78
2023/12/21 10:10:54;;;;;;;1.37;1.37;;;;;;;;;;5062901;28;20233;-78
2023/12/21 10:13:22;;;;;;;1.40;1.30;;;;;;;;;;5050961;28;20224;-79
2023/12/21 10:15:57;;;;;;;1.00;1.00;;;;;;;;;;5068555;28;20665;-79
2023/12/21 10:18:26;;;;;;;2.60;1.30;;;;;;;;;;5070512;28;20236;-78
2023/12/21 10:20:54;;;;;;;1.27;1.10;;;;;;;;;;5070321;28;20232;-78
2023/12/21 10:23:21;;;;;;;1.10;1.10;;;;;;;;;;5051476;28;20238;-79
2023/12/21 10:25:48;;;;;;;1.00;1.00;;;;;;;;;;5050048;28;20720;-78
2023/12/21 10:28:17;;;;;;;1.20;1.20;;;;;;;;;;5052134;28;20248;-80
2023/12/21 10:30:44;;;;;;;1.30;1.30;;;;;;;;;;5054567;28;20229;-79
2023/12/21 10:33:12;;;;;;;1.20;1.20;;;;;;;;;;5053950;28;20822;-79
2023/12/21 10:35:39;;;;;;;1.20;1.20;;;;;;;;;;5051828;28;20266;-78
2023/12/21 10:38:06;;;;;;;1.10;1.10;;;;;;;;;;5044207;28;20226;-79
2023/12/21 10:40:34;;;;;;;1.03;1.03;;;;;;;;;;5044145;28;20233;-81
2023/12/21 10:43:01;;;;;;;1.10;1.10;;;;;;;;;;5054527;28;20233;-77
2023/12/21 10:45:29;;;;;;;1.10;1.10;;;;;;;;;;5049944;28;20234;-79
2023/12/21 10:47:57;;;;;;;1.20;1.20;;;;;;;;;;5054164;28;20688;-77
2023/12/21 10:50:25;;;;;;;1.10;1.10;;;;;;;;;;5052356;28;20317;-79
2023/12/21 10:52:53;;;;;;;1.83;1.20;;;;;;;;;;5053267;28;20198;-79
2023/12/21 10:55:20;;;;;;;1.30;1.30;;;;;;;;;;5052441;28;20285;-79
2023/12/21 10:57:48;;;;;;;1.20;1.20;;;;;;;;;;5054463;28;20225;-79
2023/12/21 11:00:16;;;;;;;1.30;1.30;;;;;;;;;;5053371;28;20238;-79
2023/12/21 11:02:45;;;;;;;1.17;1.17;;;;;;;;;;5053940;28;20257;-79
2023/12/21 11:05:20;;;;;;;1.13;1.13;;;;;;;;;;5053416;28;20751;-79
2023/12/21 11:07:49;;;;;;;1.33;1.30;;;;;;;;;;5054068;28;20236;-79
2023/12/21 11:10:17;;;;;;;1.10;1.10;;;;;;;;;;5053423;28;20293;-80
2023/12/21 11:12:44;;;;;;;1.57;1.47;;;;;;;;;;5054143;28;20260;-79
2023/12/21 11:15:11;;;;;;;1.20;1.20;;;;;;;;;;5066384;28;20202;-79
2023/12/21 11:17:39;;;;;;;1.20;1.20;;;;;;;;;;5074073;28;20248;-79
2023/12/21 11:20:09;;;;;;;1.40;1.40;;;;;;;;;;5073863;28;20212;-79
2023/12/21 11:22:38;;;;;;;1.30;1.30;;;;;;;;;;5073923;28;20221;-79
2023/12/21 11:25:07;;;;;;;1.00;1.00;;;;;;;;;;5073326;28;20237;-80
2023/12/21 11:27:37;;;;;;;1.10;1.10;;;;;;;;;;5073406;28;20243;-79
2023/12/21 11:30:11;;;;;;;1.07;1.07;;;;;;;;;;5072993;28;20209;-81
2023/12/21 11:32:39;;;;;;;1.47;1.47;;;;;;;;;;5073672;28;20202;-79
2023/12/21 11:35:19;;;;;;;1.80;1.70;;;;;;;;;;5073217;28;20597;-80
2023/12/21 11:37:46;;;;;;;1.20;1.20;;;;;;;;;;5073746;28;20316;-79
2023/12/21 11:40:14;;;;;;;1.17;1.17;;;;;;;;;;5071979;28;20663;-80
2023/12/21 11:42:46;;;;;;;1.23;1.23;;;;;;;;;;5073232;28;20762;-79
2023/12/21 11:45:13;;;;;;;1.23;1.23;;;;;;;;;;5072539;28;20296;-79
2023/12/21 11:47:45;;;;;;;1.20;1.20;;;;;;;;;;5072997;28;20594;-79
2023/12/21 11:50:12;;;;;;;1.30;1.30;;;;;;;;;;5071442;28;20747;-79
2023/12/21 11:52:40;;;;;;;1.10;1.10;;;;;;;;;;5072841;28;20664;-79
2023/12/21 11:55:07;;;;;;;1.20;1.20;;;;;;;;;;5072495;28;20671;-79
2023/12/21 11:57:39;;;;;;;1.17;1.17;;;;;;;;;;5059027;28;20210;-79
2023/12/21 12:00:07;;;;;;;1.20;1.20;;;;;;;;;;5047613;28;20206;-79
2023/12/21 12:02:34;;;;;;;1.10;1.10;;;;;;;;;;5051169;28;20257;-79
2023/12/21 12:05:02;;;;;;;1.30;1.30;;;;;;;;;;5050067;28;20238;-79
2023/12/21 12:07:29;;;;;;;1.43;1.43;;;;;;;;;;5051210;28;20256;-79
2023/12/21 12:09:58;;;;;;;1.80;1.70;;;;;;;;;;5052428;28;20220;-80
2023/12/21 12:12:26;;;;;;;1.43;1.40;;;;;;;;;;5050781;28;20949;-79
2023/12/21 12:14:53;;;;;;;1.10;1.10;;;;;;;;;;5049896;28;20679;-79
2023/12/21 12:17:20;;;;;;;1.20;1.20;;;;;;;;;;5051130;28;20233;-79
2023/12/21 12:19:47;;;;;;;1.30;1.30;;;;;;;;;;5051992;28;20202;-78
2023/12/21 12:22:14;;;;;;;1.50;1.50;;;;;;;;;;5049854;28;20226;-78
2023/12/21 12:24:42;;;;;;;1.40;1.40;;;;;;;;;;5049402;28;20325;-79
2023/12/21 12:27:11;;;;;;;1.40;1.40;;;;;;;;;;5051104;28;20321;-79
2023/12/21 12:29:39;;;;;;;1.40;1.30;;;;;;;;;;5049342;28;20299;-78
2023/12/21 12:32:06;;;;;;;1.10;1.10;;;;;;;;;;5045647;28;20306;-79
2023/12/21 12:34:34;;;;;;;1.63;1.53;;;;;;;;;;5051084;28;20218;-78
2023/12/21 12:37:02;;;;;;;1.30;1.30;;;;;;;;;;5050524;28;20655;-78
2023/12/21 12:39:29;;;;;;;1.63;1.53;;;;;;;;;;5049322;28;20325;-80
2023/12/21 12:41:57;;;;;;;1.30;1.30;;;;;;;;;;5048594;28;20696;-78
2023/12/21 12:44:26;;;;;;;1.70;1.40;;;;;;;;;;5046981;28;20206;-78
2023/12/21 12:46:53;;;;;;;1.60;1.50;;;;;;;;;;5051291;28;20918;-79
2023/12/21 12:49:22;;;;;;;1.30;1.30;;;;;;;;;;5050937;28;20309;-79
2023/12/21 12:51:49;;;;;;;1.50;1.50;;;;;;;;;;5050092;28;20226;-79
2023/12/21 12:54:16;;;;;;;1.20;1.20;;;;;;;;;;5050043;28;20275;-79
2023/12/21 12:56:46;;;;;;;1.30;1.30;;;;;;;;;;5051041;28;20299;-78
2023/12/21 12:59:13;;;;;;;1.87;1.77;;;;;;;;;;5050637;28;20229;-78
2023/12/21 13:01:41;;;;;;;2.40;2.03;;;;;;;;;;5050639;28;20291;-79
2023/12/21 13:04:08;;;;;;;1.87;1.77;;;;;;;;;;5050220;28;20304;-79
2023/12/21 13:06:35;;;;;;;1.20;1.20;;;;;;;;;;5050358;28;20229;-79
2023/12/21 13:09:03;;;;;;;1.90;1.80;;;;;;;;;;5050963;28;20226;-78
2023/12/21 13:11:30;;;;;;;1.60;1.60;;;;;;;;;;5050312;28;20238;-79
2023/12/21 13:13:57;;;;;;;1.70;1.60;;;;;;;;;;5052473;28;20288;-78
2023/12/21 13:16:24;;;;;;;1.30;1.30;;;;;;;;;;5049559;28;20307;-78
2023/12/21 13:18:52;;;;;;;1.30;1.30;;;;;;;;;;5050831;28;20273;-78
2023/12/21 13:21:19;;;;;;;1.23;1.23;;;;;;;;;;5049658;28;20643;-79
2023/12/21 13:23:46;;;;;;;1.30;1.30;;;;;;;;;;5050796;28;20229;-79
2023/12/21 13:26:13;;;;;;;1.20;1.20;;;;;;;;;;5049375;28;20234;-79
2023/12/21 13:28:43;;;;;;;1.10;1.10;;;;;;;;;;5050764;28;20653;-79
2023/12/21 13:31:10;;;;;;;1.30;1.30;;;;;;;;;;5049920;28;20241;-79
2023/12/21 13:33:37;;;;;;;1.40;1.40;;;;;;;;;;5050487;28;20251;-79
2023/12/21 13:36:06;;;;;;;1.20;1.20;;;;;;;;;;5049698;28;20644;-79
2023/12/21 13:38:33;;;;;;;1.10;1.10;;;;;;;;;;5050272;28;20230;-78
2023/12/21 13:41:00;;;;;;;1.10;1.10;;;;;;;;;;5050208;28;20708;-78
2023/12/21 13:43:27;;;;;;;1.10;1.10;;;;;;;;;;5049059;28;20284;-78
2023/12/21 13:45:54;;;;;;;1.30;1.30;;;;;;;;;;5049761;28;20230;-80
2023/12/21 13:48:21;;;;;;;1.30;1.30;;;;;;;;;;5050022;28;20230;-78
2023/12/21 13:50:48;;;;;;;1.20;1.20;;;;;;;;;;5048119;28;20315;-78
2023/12/21 13:53:17;;;;;;;1.10;1.10;;;;;;;;;;5049452;28;20714;-78
2023/12/21 13:55:44;;;;;;;1.20;1.20;;;;;;;;;;5047567;28;20287;-78
2023/12/21 13:58:11;;;;;;;1.20;1.20;;;;;;;;;;5047258;28;20230;-78
2023/12/21 14:00:38;;;;;;;2.87;1.30;;;;;;;;;;5049697;28;20234;-78
2023/12/21 14:03:05;;;;;;;1.27;1.27;;;;;;;;;;5049549;28;20221;-78
2023/12/21 14:05:32;;;;;;;1.10;1.10;;;;;;;;;;5036515;28;20895;-78
2023/12/21 14:07:59;;;;;;;1.17;1.17;;;;;;;;;;5049829;28;20222;-78
2023/12/21 14:10:28;;;;;;;1.30;1.30;;;;;;;;;;5049400;28;20225;-78
2023/12/21 14:12:55;;;;;;;1.20;1.20;;;;;;;;;;5049596;28;20245;-78
2023/12/21 14:15:22;;;;;;;1.33;1.30;;;;;;;;;;5056606;28;22556;-78
2023/12/21 14:17:49;;;;;;;1.50;1.40;;;;;;;;;;5045050;28;20230;-78
2023/12/21 14:20:18;;;;;;;1.10;1.10;;;;;;;;;;5049503;28;20209;-78
2023/12/21 14:22:45;;;;;;;1.10;1.10;;;;;;;;;;5040938;28;20226;-78
2023/12/21 14:25:12;;;;;;;1.20;1.20;;;;;;;;;;5029936;28;20260;-79
2023/12/21 14:27:42;;;;;;;1.30;1.30;;;;;;;;;;5030932;28;20709;-78
2023/12/21 14:30:10;;;;;;;1.47;1.47;;;;;;;;;;5029339;28;20623;-78
2023/12/21 14:32:37;;;;;;;1.30;1.30;;;;;;;;;;5030600;28;20225;-77
2023/12/21 14:35:04;;;;;;;1.60;1.50;;;;;;;;;;5035129;28;20206;-78
2023/12/21 14:37:31;;;;;;;1.93;1.83;;;;;;;;;;5050369;28;20209;-77
2023/12/21 14:39:58;;;;;;;1.70;1.60;;;;;;;;;;5050658;28;20560;-77
2023/12/21 14:42:25;;;;;;;1.37;1.27;;;;;;;;;;5049724;28;20737;-77
2023/12/21 14:44:53;;;;;;;1.40;1.40;;;;;;;;;;5050030;28;20213;-78